Time;durP1;ratioP1;P1;durP2;ratioP2;P2;SDS_P1;SDS_P2;PMS_P1;PMS_P2;Temp;Humidity;BMP_temperature;BMP_pressure;BME280_temperature;BME280_humidity;BME280_pressure;Samples;Min_cycle;Max_cycle;Signal;HPM_P1;HPM_P2
2021/03/07 00:01:22;;;;;;;10.00;4.80;;;0.80;88.90;;;;;;5060091;28;20052;-90
2021/03/07 00:03:47;;;;;;;10.63;5.47;;;0.70;89.00;;;;;;5059714;28;20400;-90
2021/03/07 00:06:14;;;;;;;7.87;4.80;;;0.70;90.00;;;;;;5058965;28;20128;-89
2021/03/07 00:08:40;;;;;;;10.20;4.80;;;0.70;90.00;;;;;;5059722;28;20021;-89
2021/03/07 00:11:05;;;;;;;9.57;4.70;;;0.60;90.20;;;;;;5059532;28;20111;-89
2021/03/07 00:13:33;;;;;;;8.67;5.03;;;0.60;90.70;;;;;;5058841;28;20539;-89
2021/03/07 00:15:59;;;;;;;8.13;4.47;;;0.60;91.40;;;;;;5059512;28;20047;-90
2021/03/07 00:18:28;;;;;;;9.47;4.77;;;0.70;91.30;;;;;;5059457;28;20033;-89
2021/03/07 00:20:54;;;;;;;10.70;4.60;;;0.50;91.30;;;;;;5060579;28;20101;-89
2021/03/07 00:23:20;;;;;;;9.73;4.97;;;0.50;92.20;;;;;;5061497;28;20064;-89
2021/03/07 00:25:45;;;;;;;11.30;5.03;;;0.50;92.70;;;;;;5059836;28;20051;-89
2021/03/07 00:28:11;;;;;;;7.80;3.97;;;0.40;92.70;;;;;;5058947;28;20025;-89
2021/03/07 00:30:37;;;;;;;8.73;4.77;;;0.40;93.10;;;;;;5059731;28;20024;-89
2021/03/07 00:33:03;;;;;;;7.13;3.80;;;0.50;93.50;;;;;;5059073;28;20412;-89
2021/03/07 00:35:28;;;;;;;8.60;4.50;;;0.40;93.80;;;;;;5058973;28;20035;-89
2021/03/07 00:37:54;;;;;;;8.77;4.80;;;0.40;94.10;;;;;;5059679;28;20044;-89
2021/03/07 00:40:20;;;;;;;10.57;4.97;;;0.40;93.80;;;;;;5059076;28;20024;-89
2021/03/07 00:42:47;;;;;;;8.50;5.00;;;0.40;93.90;;;;;;5058942;28;20029;-89
2021/03/07 00:45:15;;;;;;;8.57;4.77;;;0.40;94.70;;;;;;5059748;28;20429;-88
2021/03/07 00:47:41;;;;;;;9.07;5.37;;;0.40;95.60;;;;;;5058857;28;20025;-89
2021/03/07 00:50:14;;;;;;;9.80;5.47;;;0.30;95.30;;;;;;5059024;28;20032;-89
2021/03/07 00:52:40;;;;;;;9.87;5.10;;;0.40;95.90;;;;;;5060776;28;20032;-89
2021/03/07 00:55:07;;;;;;;7.37;4.57;;;0.40;95.80;;;;;;5074566;28;20028;-90
2021/03/07 00:57:33;;;;;;;12.13;5.70;;;0.30;95.40;;;;;;5066975;28;20437;-88
2021/03/07 00:59:58;;;;;;;8.23;4.73;;;0.30;95.30;;;;;;5059430;28;20115;-89
2021/03/07 01:02:26;;;;;;;7.83;4.57;;;0.30;95.90;;;;;;5058621;28;20591;-89
2021/03/07 01:04:52;;;;;;;8.50;4.60;;;0.20;95.20;;;;;;5058340;28;20055;-89
2021/03/07 01:07:19;;;;;;;8.17;4.00;;;0.20;96.30;;;;;;5059149;28;20469;-89
2021/03/07 01:09:45;;;;;;;6.90;3.63;;;0.30;94.50;;;;;;5058923;28;20031;-89
2021/03/07 01:12:11;;;;;;;6.27;3.37;;;0.10;94.20;;;;;;5058661;28;20029;-89
2021/03/07 01:14:37;;;;;;;7.37;3.43;;;0.10;93.40;;;;;;5058699;28;20495;-89
2021/03/07 01:17:02;;;;;;;7.37;3.70;;;0.00;94.90;;;;;;5058682;28;20040;-91
2021/03/07 01:19:34;;;;;;;8.07;3.67;;;0.00;95.20;;;;;;5058125;28;20085;-89
2021/03/07 01:22:01;;;;;;;8.10;3.73;;;-0.10;96.20;;;;;;5058211;28;20028;-89
2021/03/07 01:24:27;;;;;;;7.60;4.00;;;0.00;96.60;;;;;;5058903;28;20025;-88
2021/03/07 01:26:53;;;;;;;9.00;4.23;;;0.00;96.40;;;;;;5058946;28;20016;-89
2021/03/07 01:29:19;;;;;;;8.90;4.50;;;0.00;96.00;;;;;;5058295;28;20020;-89
2021/03/07 01:31:45;;;;;;;9.23;4.60;;;0.10;96.70;;;;;;5058294;28;20599;-89
2021/03/07 01:34:10;;;;;;;8.33;3.93;;;0.00;97.60;;;;;;5058728;28;20059;-89
2021/03/07 01:36:36;;;;;;;9.43;3.90;;;0.00;97.30;;;;;;5058446;28;20032;-88
2021/03/07 01:39:03;;;;;;;9.13;4.37;;;0.00;98.60;;;;;;5058157;28;20028;-89
2021/03/07 01:41:29;;;;;;;8.17;4.17;;;0.10;99.20;;;;;;5058295;28;20029;-88
2021/03/07 01:43:54;;;;;;;7.97;4.10;;;0.10;99.50;;;;;;5058589;28;20031;-89
2021/03/07 01:46:20;;;;;;;8.70;4.20;;;0.00;99.80;;;;;;5058830;28;20020;-89
2021/03/07 01:49:03;;;;;;;7.47;3.83;;;0.00;99.90;;;;;;5058105;28;20100;-89
2021/03/07 01:51:30;;;;;;;10.13;4.33;;;0.00;99.70;;;;;;5057882;28;20565;-88
2021/03/07 01:53:55;;;;;;;8.37;3.70;;;0.00;99.90;;;;;;5058168;28;20107;-88
2021/03/07 01:56:22;;;;;;;10.27;4.17;;;0.00;99.90;;;;;;5058797;28;20040;-88
2021/03/07 01:58:50;;;;;;;8.70;4.20;;;0.00;99.90;;;;;;5058386;28;20074;-89
2021/03/07 02:01:16;;;;;;;8.47;3.60;;;-0.10;99.90;;;;;;5057914;28;20229;-88
2021/03/07 02:03:55;;;;;;;10.53;3.93;;;-0.10;99.90;;;;;;5058085;28;20388;-91
2021/03/07 02:06:21;;;;;;;8.97;4.13;;;-0.10;99.90;;;;;;5057813;28;20031;-88
2021/03/07 02:08:50;;;;;;;9.70;4.13;;;-0.10;99.90;;;;;;5060794;28;20029;-88
2021/03/07 02:11:17;;;;;;;7.13;3.60;;;-0.10;99.90;;;;;;5059780;28;20024;-89
2021/03/07 02:13:45;;;;;;;8.20;4.57;;;-0.10;99.90;;;;;;5058659;28;20031;-88
2021/03/07 02:16:23;;;;;;;7.63;3.93;;;-0.20;99.90;;;;;;5057386;28;20396;-89
2021/03/07 02:18:53;;;;;;;9.30;4.13;;;-0.10;99.90;;;;;;5057942;28;20124;-88
2021/03/07 02:21:28;;;;;;;8.87;4.43;;;-0.10;99.90;;;;;;5058908;28;20020;-88
2021/03/07 02:24:06;;;;;;;6.90;3.70;;;-0.20;99.90;;;;;;5058444;28;20024;-88
2021/03/07 02:26:33;;;;;;;8.57;4.10;;;-0.30;99.90;;;;;;5058088;28;20048;-88
2021/03/07 02:29:01;;;;;;;8.23;4.37;;;-0.20;99.90;;;;;;5058162;28;20024;-88
2021/03/07 02:31:38;;;;;;;6.93;3.80;;;-0.40;99.90;;;;;;5058766;28;20082;-88
2021/03/07 02:34:16;;;;;;;8.40;4.43;;;-0.40;99.90;;;;;;5059132;28;20035;-88
2021/03/07 02:36:46;;;;;;;10.87;5.00;;;-0.40;99.90;;;;;;5058766;28;20028;-88
2021/03/07 02:39:15;;;;;;;10.47;4.73;;;-0.40;99.90;;;;;;5058884;28;20028;-89
2021/03/07 02:41:40;;;;;;;7.80;4.30;;;-0.40;99.90;;;;;;5059192;28;20029;-88
2021/03/07 02:44:10;;;;;;;9.60;4.60;;;-0.50;99.90;;;;;;5058874;28;20417;-89
2021/03/07 02:46:37;;;;;;;9.67;4.10;;;-0.50;99.90;;;;;;5058628;28;20017;-88
2021/03/07 02:49:06;;;;;;;8.73;5.10;;;-0.50;99.90;;;;;;5062409;28;20044;-88
2021/03/07 02:51:35;;;;;;;8.27;4.53;;;-0.50;99.90;;;;;;5061800;28;20048;-89
2021/03/07 02:54:05;;;;;;;7.40;4.70;;;-0.60;99.90;;;;;;5061324;28;20035;-89
2021/03/07 02:56:35;;;;;;;8.20;4.33;;;-0.50;99.90;;;;;;5062211;28;20024;-88
2021/03/07 02:59:05;;;;;;;8.87;4.47;;;-0.60;99.90;;;;;;5061513;28;20492;-88
2021/03/07 03:01:32;;;;;;;10.33;5.20;;;-0.60;99.90;;;;;;5061522;28;20177;-88
2021/03/07 03:04:00;;;;;;;8.63;4.63;;;-0.60;99.90;;;;;;5062010;28;20028;-89
2021/03/07 03:06:27;;;;;;;9.37;4.70;;;-0.70;99.90;;;;;;5061880;28;20435;-88
2021/03/07 03:08:56;;;;;;;10.10;4.43;;;-0.70;99.90;;;;;;5061715;28;20033;-88
2021/03/07 03:11:26;;;;;;;8.20;4.30;;;-0.80;99.90;;;;;;5061804;28;20092;-87
2021/03/07 03:13:52;;;;;;;8.00;4.37;;;-0.80;99.90;;;;;;5062480;28;20067;-88
2021/03/07 03:16:23;;;;;;;8.60;4.57;;;-0.80;99.90;;;;;;5062432;28;20028;-89
2021/03/07 03:18:50;;;;;;;8.33;4.20;;;-0.80;99.90;;;;;;5062335;28;20024;-88
2021/03/07 03:21:16;;;;;;;8.53;4.57;;;-0.90;99.90;;;;;;5063752;28;20048;-88
2021/03/07 03:23:42;;;;;;;7.83;4.37;;;-1.00;99.90;;;;;;5065085;28;20035;-88
2021/03/07 03:26:09;;;;;;;8.67;4.53;;;-1.00;99.90;;;;;;5063436;28;20469;-88
2021/03/07 03:28:36;;;;;;;9.00;4.43;;;-1.00;99.90;;;;;;5058956;28;20025;-88
2021/03/07 03:31:02;;;;;;;9.13;4.57;;;-1.00;99.90;;;;;;5060881;28;20016;-88
2021/03/07 03:33:28;;;;;;;8.27;4.57;;;-1.00;99.90;;;;;;5060669;28;20021;-88
2021/03/07 03:35:54;;;;;;;7.87;4.07;;;-1.00;99.90;;;;;;5059863;28;20064;-89
2021/03/07 03:38:21;;;;;;;8.77;4.60;;;-1.10;99.90;;;;;;5059555;28;20024;-88
2021/03/07 03:40:51;;;;;;;7.27;3.87;;;-1.10;99.90;;;;;;5059433;28;20032;-88
2021/03/07 03:43:18;;;;;;;8.43;4.43;;;-1.10;99.90;;;;;;5057331;28;20089;-88
2021/03/07 03:45:45;;;;;;;8.57;4.17;;;-1.10;99.90;;;;;;5057166;28;20024;-88
2021/03/07 03:48:17;;;;;;;8.70;4.73;;;-1.10;99.90;;;;;;5060528;28;20025;-89
2021/03/07 03:50:44;;;;;;;8.23;3.72;;;-1.10;99.90;;;;;;5062357;28;20021;-88
2021/03/07 03:53:17;;;;;;;8.97;4.37;;;-1.10;99.90;;;;;;5061248;28;20560;-88
2021/03/07 03:55:46;;;;;;;7.60;4.27;;;-1.00;99.90;;;;;;5068382;28;20030;-89
2021/03/07 03:58:14;;;;;;;9.10;4.00;;;-1.00;99.90;;;;;;5057467;28;20031;-88
2021/03/07 04:00:43;;;;;;;8.03;4.13;;;-1.00;99.90;;;;;;5056456;28;20020;-88
2021/03/07 04:03:17;;;;;;;11.53;5.00;;;-1.00;99.90;;;;;;5056054;28;20472;-88
2021/03/07 04:05:47;;;;;;;8.87;4.50;;;-1.00;99.90;;;;;;5056909;28;20025;-88
2021/03/07 04:08:15;;;;;;;9.17;4.60;;;-1.00;99.90;;;;;;5056209;28;20031;-88
2021/03/07 04:10:43;;;;;;;8.73;4.43;;;-1.00;99.90;;;;;;5055854;28;20021;-87
2021/03/07 04:13:14;;;;;;;8.83;4.10;;;-1.00;99.90;;;;;;5055473;28;20447;-88
2021/03/07 04:15:41;;;;;;;10.47;4.50;;;-1.00;99.90;;;;;;5055188;28;20085;-89
2021/03/07 04:18:08;;;;;;;8.73;4.80;;;-1.00;99.90;;;;;;5055497;28;20083;-88
2021/03/07 04:20:34;;;;;;;8.50;4.63;;;-1.00;99.90;;;;;;5055507;28;20027;-88
2021/03/07 04:23:00;;;;;;;8.00;4.60;;;-1.00;99.90;;;;;;5055760;28;20089;-88
2021/03/07 04:25:25;;;;;;;8.83;4.63;;;-1.10;99.90;;;;;;5055256;28;20020;-88
2021/03/07 04:27:52;;;;;;;8.40;4.30;;;-1.10;99.90;;;;;;5055284;28;20388;-88
2021/03/07 04:30:18;;;;;;;10.07;5.00;;;-1.10;99.90;;;;;;5055074;28;20108;-88
2021/03/07 04:32:45;;;;;;;9.23;4.80;;;-1.10;99.90;;;;;;5055171;28;20032;-88
2021/03/07 04:35:12;;;;;;;12.80;5.20;;;-1.10;99.90;;;;;;5054738;28;20469;-88
2021/03/07 04:37:38;;;;;;;11.13;5.10;;;-1.20;99.90;;;;;;5055088;28;20051;-88
2021/03/07 04:40:13;;;;;;;7.50;4.57;;;-1.20;99.90;;;;;;5054953;28;20639;-88
2021/03/07 04:42:41;;;;;;;8.93;4.83;;;-1.20;99.90;;;;;;5054814;28;20047;-88
2021/03/07 04:45:07;;;;;;;8.33;4.67;;;-1.20;99.90;;;;;;5055000;28;20395;-89
2021/03/07 04:47:33;;;;;;;10.47;4.67;;;-1.20;99.90;;;;;;5054840;28;20074;-88
2021/03/07 04:49:59;;;;;;;7.20;4.27;;;-1.10;99.90;;;;;;5054992;28;20024;-89
2021/03/07 04:52:24;;;;;;;9.70;4.70;;;-1.20;99.90;;;;;;5054913;28;20029;-88
2021/03/07 04:54:50;;;;;;;9.30;4.70;;;-1.20;99.90;;;;;;5054888;28;20032;-88
2021/03/07 04:57:16;;;;;;;8.80;4.80;;;-1.20;99.90;;;;;;5054633;28;20040;-89
2021/03/07 04:59:42;;;;;;;10.40;5.37;;;-1.20;99.90;;;;;;5054638;28;20115;-88
2021/03/07 05:02:07;;;;;;;10.10;5.03;;;-1.20;99.90;;;;;;5054726;28;20056;-89
2021/03/07 05:04:33;;;;;;;9.10;5.07;;;-1.20;99.90;;;;;;5054686;28;20111;-88
2021/03/07 05:07:01;;;;;;;10.33;5.20;;;-1.20;99.90;;;;;;5054693;28;20628;-88
2021/03/07 05:09:27;;;;;;;10.23;5.07;;;-1.20;99.90;;;;;;5053806;28;20412;-88
2021/03/07 05:11:52;;;;;;;9.00;4.67;;;-1.20;99.90;;;;;;5054121;28;20028;-88
2021/03/07 05:14:18;;;;;;;9.70;4.63;;;-1.20;99.90;;;;;;5054315;28;20031;-88
2021/03/07 05:16:43;;;;;;;11.47;5.37;;;-1.20;99.90;;;;;;5054226;28;20039;-89
2021/03/07 05:19:09;;;;;;;9.13;5.27;;;-1.20;99.90;;;;;;5054426;28;20029;-88
2021/03/07 05:21:35;;;;;;;10.47;5.23;;;-1.20;99.90;;;;;;5054412;28;20032;-88
2021/03/07 05:24:00;;;;;;;11.93;5.27;;;-1.20;99.90;;;;;;5054300;28;20025;-88
2021/03/07 05:26:27;;;;;;;10.87;5.37;;;-1.30;99.90;;;;;;5052163;28;20059;-89
2021/03/07 05:28:53;;;;;;;10.73;5.37;;;-1.30;99.90;;;;;;5053362;28;20025;-88
2021/03/07 05:31:19;;;;;;;10.37;5.07;;;-1.30;99.90;;;;;;5045097;28;20168;-88
2021/03/07 05:33:44;;;;;;;9.33;5.13;;;-1.30;99.90;;;;;;5048047;28;20112;-88
2021/03/07 05:36:10;;;;;;;9.50;5.27;;;-1.30;99.90;;;;;;5039867;28;20086;-89
2021/03/07 05:38:39;;;;;;;11.60;5.70;;;-1.40;99.90;;;;;;5044881;28;20025;-88
2021/03/07 05:41:10;;;;;;;9.27;5.03;;;-1.40;99.90;;;;;;5053363;28;20025;-88
2021/03/07 05:43:37;;;;;;;9.00;4.90;;;-1.40;99.90;;;;;;5046229;28;20035;-88
2021/03/07 05:46:02;;;;;;;11.50;5.67;;;-1.40;99.90;;;;;;5045843;28;20156;-88
2021/03/07 05:48:29;;;;;;;11.10;6.07;;;-1.40;99.90;;;;;;5045000;28;20403;-88
2021/03/07 05:50:55;;;;;;;10.77;5.20;;;-1.40;99.90;;;;;;5053105;28;20113;-88
2021/03/07 05:53:21;;;;;;;10.17;5.63;;;-1.40;99.90;;;;;;5043328;28;20035;-88
2021/03/07 05:55:48;;;;;;;9.07;4.90;;;-1.30;99.90;;;;;;5048181;28;20470;-88
2021/03/07 05:58:15;;;;;;;11.13;5.73;;;-1.30;99.90;;;;;;5044855;28;20032;-88
2021/03/07 06:00:41;;;;;;;9.90;5.07;;;-1.30;99.90;;;;;;5051670;28;20032;-87
2021/03/07 06:03:07;;;;;;;8.67;5.07;;;-1.30;99.90;;;;;;5052882;28;20040;-89
2021/03/07 06:05:33;;;;;;;10.33;5.10;;;-1.30;99.90;;;;;;5042493;28;20024;-88
2021/03/07 06:08:00;;;;;;;9.33;5.03;;;-1.30;99.90;;;;;;5057355;28;20052;-88
2021/03/07 06:10:27;;;;;;;10.20;5.30;;;-1.30;99.90;;;;;;5049789;28;20017;-88
2021/03/07 06:13:05;;;;;;;9.67;4.60;;;-1.30;99.90;;;;;;5040874;28;20419;-89
2021/03/07 06:15:32;;;;;;;10.27;4.80;;;-1.20;99.90;;;;;;5069830;28;20485;-89
2021/03/07 06:17:58;;;;;;;8.40;4.87;;;-1.30;99.90;;;;;;5069836;28;20484;-88
2021/03/07 06:20:25;;;;;;;10.30;4.77;;;-1.20;99.90;;;;;;5060021;28;20033;-88
2021/03/07 06:23:00;;;;;;;12.37;4.77;;;-1.20;99.90;;;;;;5044948;28;20094;-88
2021/03/07 06:25:27;;;;;;;10.17;5.23;;;-1.20;99.90;;;;;;5041073;28;20780;-88
2021/03/07 06:27:53;;;;;;;11.50;5.93;;;-1.20;99.90;;;;;;5042718;28;20013;-89
2021/03/07 06:30:24;;;;;;;10.67;5.60;;;-1.20;99.90;;;;;;5056395;28;20038;-88
2021/03/07 06:32:56;;;;;;;10.03;5.10;;;-1.10;99.90;;;;;;5067536;28;20046;-88
2021/03/07 06:35:30;;;;;;;7.57;3.97;;;-1.00;99.90;;;;;;5049224;28;20021;-88
2021/03/07 06:38:04;;;;;;;9.00;4.93;;;-1.00;99.90;;;;;;5049057;28;20047;-88
2021/03/07 06:40:36;;;;;;;8.67;4.97;;;-1.00;99.90;;;;;;5059749;28;20020;-88
2021/03/07 06:43:05;;;;;;;9.47;4.73;;;-1.00;99.90;;;;;;5054055;28;20073;-88
2021/03/07 06:45:42;;;;;;;8.33;4.83;;;-0.90;99.90;;;;;;5068855;28;20008;-90
2021/03/07 06:48:09;;;;;;;10.63;5.10;;;-0.80;99.90;;;;;;5077347;28;20020;-88
2021/03/07 06:50:50;;;;;;;9.50;5.20;;;-0.70;99.90;;;;;;5052273;28;20039;-88
2021/03/07 06:53:30;;;;;;;9.03;4.70;;;-0.70;99.90;;;;;;5071481;28;20024;-89
2021/03/07 06:55:56;;;;;;;10.13;4.57;;;-0.60;99.90;;;;;;5048802;28;20112;-88
2021/03/07 06:58:21;;;;;;;13.50;5.57;;;-0.60;99.90;;;;;;5056072;28;20107;-88
2021/03/07 07:00:47;;;;;;;11.07;5.00;;;-0.50;99.90;;;;;;5039581;28;20047;-88
2021/03/07 07:03:15;;;;;;;8.93;4.63;;;-0.40;99.90;;;;;;5045386;28;20489;-88
2021/03/07 07:05:45;;;;;;;9.27;5.07;;;-0.30;99.90;;;;;;5046992;28;20090;-87
2021/03/07 07:08:13;;;;;;;8.63;4.83;;;-0.20;99.90;;;;;;5053056;28;20070;-89
2021/03/07 07:10:59;;;;;;;8.80;4.23;;;-0.10;99.90;;;;;;5042924;28;20111;-88
2021/03/07 07:13:28;;;;;;;8.80;4.77;;;0.00;99.90;;;;;;5051280;28;20500;-88
2021/03/07 07:15:59;;;;;;;8.87;4.90;;;0.10;99.90;;;;;;5061054;28;20040;-88
2021/03/07 07:18:26;;;;;;;9.10;5.27;;;0.20;99.90;;;;;;5052564;28;20393;-88
2021/03/07 07:20:53;;;;;;;11.73;5.70;;;0.20;99.90;;;;;;5043238;28;20122;-88
2021/03/07 07:23:20;;;;;;;8.93;5.30;;;0.30;99.90;;;;;;5052365;28;20040;-89
2021/03/07 07:25:46;;;;;;;8.77;5.40;;;0.40;99.90;;;;;;5056379;28;20494;-88
2021/03/07 07:28:13;;;;;;;11.57;5.53;;;0.30;99.90;;;;;;5054532;28;20535;-88
2021/03/07 07:30:39;;;;;;;11.23;5.60;;;0.00;99.90;;;;;;5045335;28;20029;-89
2021/03/07 07:33:10;;;;;;;9.47;4.60;;;-0.10;99.90;;;;;;5064417;28;20397;-89
2021/03/07 07:35:37;;;;;;;10.40;5.73;;;-0.20;99.90;;;;;;5056464;28;20040;-90
2021/03/07 07:38:04;;;;;;;10.53;5.47;;;-0.20;99.90;;;;;;5055952;28;20508;-88
2021/03/07 07:40:42;;;;;;;10.97;5.30;;;-0.20;99.90;;;;;;5037839;28;20044;-88
2021/03/07 07:43:09;;;;;;;9.83;5.57;;;-0.10;99.90;;;;;;5048924;28;20032;-89
2021/03/07 07:45:35;;;;;;;11.63;5.40;;;0.00;99.90;;;;;;5054864;28;20453;-89
2021/03/07 07:48:01;;;;;;;11.17;5.77;;;0.10;99.90;;;;;;5054776;28;20043;-88
2021/03/07 07:50:31;;;;;;;9.23;5.03;;;0.30;99.90;;;;;;5046628;28;20077;-89
2021/03/07 07:53:25;;;;;;;11.03;5.53;;;0.50;99.90;;;;;;5053949;28;20485;-88
2021/03/07 07:56:00;;;;;;;9.63;5.27;;;0.70;99.90;;;;;;5036277;28;20062;-89
2021/03/07 07:58:36;;;;;;;9.27;5.63;;;0.80;99.90;;;;;;5050846;28;20033;-89
2021/03/07 08:01:13;;;;;;;9.90;5.53;;;0.90;99.90;;;;;;5050928;28;20028;-88
2021/03/07 08:03:40;;;;;;;10.00;5.63;;;1.00;99.90;;;;;;5048383;28;20031;-88
2021/03/07 08:06:11;;;;;;;10.67;5.83;;;1.20;99.90;;;;;;5041047;28;20708;-89
2021/03/07 08:08:44;;;;;;;10.27;6.17;;;1.30;99.90;;;;;;5053762;28;20107;-89
2021/03/07 08:11:18;;;;;;;11.97;6.43;;;1.40;99.90;;;;;;5049081;28;20020;-88
2021/03/07 08:13:52;;;;;;;11.57;6.40;;;1.50;99.90;;;;;;5052498;28;20115;-90
2021/03/07 08:16:42;;;;;;;10.30;6.23;;;1.50;99.90;;;;;;5072199;28;20032;-89
2021/03/07 08:19:10;;;;;;;10.50;5.87;;;1.60;99.90;;;;;;5052189;28;20481;-88
2021/03/07 08:22:01;;;;;;;12.23;6.40;;;1.60;99.90;;;;;;5046733;28;20036;-89
2021/03/07 08:24:56;;;;;;;10.40;6.37;;;1.60;99.90;;;;;;5052051;28;20479;-89
2021/03/07 08:27:41;;;;;;;12.20;6.80;;;1.80;99.90;;;;;;5053239;28;20021;-89
2021/03/07 08:30:09;;;;;;;12.43;6.90;;;1.70;99.90;;;;;;5067308;28;20223;-88
2021/03/07 08:32:45;;;;;;;12.40;6.40;;;1.80;99.90;;;;;;5052403;28;20020;-89
2021/03/07 08:35:24;;;;;;;11.57;7.20;;;1.70;99.90;;;;;;5054410;28;20028;-89
2021/03/07 08:38:14;;;;;;;12.97;6.70;;;1.90;99.90;;;;;;5052513;28;20024;-88
2021/03/07 08:40:54;;;;;;;10.87;6.67;;;2.00;99.90;;;;;;5045960;28;20037;-91
2021/03/07 08:43:23;;;;;;;12.90;6.70;;;2.10;99.90;;;;;;5056712;28;20051;-90
2021/03/07 08:46:13;;;;;;;12.40;7.47;;;2.20;99.90;;;;;;5057284;28;20074;-90
2021/03/07 08:48:41;;;;;;;10.67;6.50;;;2.20;99.90;;;;;;5053271;28;20473;-91
2021/03/07 08:51:08;;;;;;;12.27;6.77;;;2.40;99.90;;;;;;5042158;28;20628;-89
2021/03/07 08:53:38;;;;;;;15.90;7.93;;;2.60;99.90;;;;;;5050721;28;20049;-89
2021/03/07 08:56:04;;;;;;;11.17;6.83;;;2.70;99.90;;;;;;5053493;28;20029;-90
2021/03/07 08:58:30;;;;;;;13.03;7.23;;;2.80;99.90;;;;;;5047925;28;20107;-89
2021/03/07 09:00:58;;;;;;;11.67;6.53;;;2.90;99.90;;;;;;5055840;28;20064;-89
2021/03/07 09:03:25;;;;;;;12.90;7.07;;;2.90;99.20;;;;;;5062752;28;20056;-89
2021/03/07 09:05:51;;;;;;;10.80;6.57;;;3.10;99.20;;;;;;5051832;28;20032;-89
2021/03/07 09:08:24;;;;;;;11.60;6.97;;;3.10;97.80;;;;;;5069603;28;20020;-89
2021/03/07 09:10:53;;;;;;;12.53;7.10;;;3.30;98.00;;;;;;5049958;28;20032;-89
2021/03/07 09:13:20;;;;;;;12.03;7.13;;;3.40;97.60;;;;;;5053521;28;20077;-88
2021/03/07 09:15:54;;;;;;;11.03;6.73;;;3.40;97.30;;;;;;5034984;28;20055;-90
2021/03/07 09:18:28;;;;;;;12.83;7.70;;;3.50;97.40;;;;;;5046405;28;20037;-90
2021/03/07 09:21:04;;;;;;;11.97;7.00;;;3.60;97.20;;;;;;5050909;28;20029;-90
2021/03/07 09:23:38;;;;;;;12.93;7.70;;;3.60;96.20;;;;;;5047370;28;20028;-89
2021/03/07 09:26:09;;;;;;;12.23;8.23;;;3.70;96.20;;;;;;5036513;28;20029;-89
2021/03/07 09:28:47;;;;;;;15.25;7.88;;;3.90;96.40;;;;;;5049216;28;20021;-89
2021/03/07 09:31:31;;;;;;;14.00;8.10;;;4.10;95.40;;;;;;5061405;28;20025;-89
2021/03/07 09:33:58;;;;;;;12.87;8.47;;;4.30;95.00;;;;;;5068041;28;20013;-89
2021/03/07 09:36:26;;;;;;;14.43;8.30;;;4.30;95.30;;;;;;5047843;28;20035;-89
2021/03/07 09:38:57;;;;;;;12.37;7.83;;;4.50;95.10;;;;;;5066542;28;20029;-89
2021/03/07 09:41:46;;;;;;;13.23;8.00;;;4.70;94.70;;;;;;5081541;28;20039;-89
2021/03/07 09:44:17;;;;;;;12.07;7.63;;;4.90;94.30;;;;;;5052446;28;20032;-90
2021/03/07 09:46:45;;;;;;;15.60;8.40;;;5.00;94.10;;;;;;5050769;28;20028;-90
2021/03/07 09:49:16;;;;;;;11.73;7.70;;;5.00;93.90;;;;;;5053789;28;20043;-90
2021/03/07 09:51:43;;;;;;;13.63;8.33;;;5.10;94.50;;;;;;5070716;28;20021;-90
2021/03/07 09:54:14;;;;;;;13.40;8.40;;;5.00;93.70;;;;;;5051438;28;20457;-91
2021/03/07 09:56:40;;;;;;;12.70;7.73;;;5.20;93.80;;;;;;5049313;28;20107;-91
2021/03/07 09:59:10;;;;;;;17.00;9.63;;;5.30;93.20;;;;;;5052696;28;20067;-91
2021/03/07 10:01:49;;;;;;;13.27;8.70;;;5.50;92.40;;;;;;5053097;28;20028;-90
2021/03/07 10:04:41;;;;;;;15.57;8.30;;;5.60;92.10;;;;;;5054085;28;20040;-90
2021/03/07 10:07:10;;;;;;;15.47;8.47;;;5.70;91.80;;;;;;5051783;28;20035;-90
2021/03/07 10:10:04;;;;;;;14.63;9.10;;;5.80;91.30;;;;;;5075913;28;20020;-90
2021/03/07 10:12:54;;;;;;;13.57;8.10;;;6.10;90.20;;;;;;5052000;28;20025;-90
2021/03/07 10:15:35;;;;;;;16.17;8.30;;;6.20;90.40;;;;;;5054067;28;20028;-91
2021/03/07 10:18:10;;;;;;;14.43;9.15;;;6.30;90.40;;;;;;5041906;28;20040;-90
2021/03/07 10:20:41;;;;;;;13.37;8.50;;;6.20;90.00;;;;;;5052478;28;20397;-90
2021/03/07 10:23:08;;;;;;;13.57;8.80;;;6.50;88.60;;;;;;5050150;28;20032;-90
2021/03/07 10:25:37;;;;;;;13.43;8.17;;;6.70;86.70;;;;;;5063641;28;20067;-89
2021/03/07 10:28:12;;;;;;;14.40;9.23;;;6.90;86.30;;;;;;5066826;28;20173;-90
2021/03/07 10:30:43;;;;;;;11.90;8.07;;;6.90;85.70;;;;;;5067134;28;20012;-91
2021/03/07 10:33:30;;;;;;;14.73;9.10;;;7.00;85.30;;;;;;5053468;28;20035;-91
2021/03/07 10:36:07;;;;;;;15.97;8.80;;;7.10;84.20;;;;;;5048835;28;20111;-89
2021/03/07 10:38:41;;;;;;;12.77;8.87;;;7.20;83.30;;;;;;5050869;28;20029;-91
2021/03/07 10:41:30;;;;;;;13.80;9.10;;;7.20;83.80;;;;;;5054540;28;20071;-92
2021/03/07 10:43:58;;;;;;;15.73;9.23;;;7.20;84.10;;;;;;5060933;28;20028;-91
2021/03/07 10:46:31;;;;;;;13.27;8.73;;;7.30;83.30;;;;;;5072673;28;20028;-90
2021/03/07 10:49:02;;;;;;;15.10;9.47;;;7.40;83.20;;;;;;5053132;28;20021;-91
2021/03/07 10:51:28;;;;;;;13.07;8.67;;;7.40;83.10;;;;;;5041970;28;20028;-90
2021/03/07 10:53:55;;;;;;;12.73;8.07;;;7.50;82.00;;;;;;5055186;28;20144;-90
2021/03/07 10:56:26;;;;;;;16.10;9.37;;;7.60;83.80;;;;;;5050085;28;20021;-91
2021/03/07 10:58:52;;;;;;;9.02;6.40;;;7.80;82.20;;;;;;5053134;28;20032;-90
2021/03/07 11:01:18;;;;;;;14.60;9.07;;;7.70;78.50;;;;;;5050416;28;20758;-92
2021/03/07 11:03:44;;;;;;;13.07;8.40;;;7.80;78.70;;;;;;5055038;28;20116;-91
2021/03/07 11:06:10;;;;;;;12.63;8.27;;;7.80;79.20;;;;;;5055566;28;20020;-91
2021/03/07 11:08:39;;;;;;;13.07;8.50;;;8.00;77.90;;;;;;5070753;28;20048;-91
2021/03/07 11:11:05;;;;;;;12.80;8.95;;;8.00;75.10;;;;;;5071555;28;20484;-90
2021/03/07 11:13:42;;;;;;;13.97;8.90;;;7.90;75.80;;;;;;5050493;28;20016;-91
2021/03/07 11:16:11;;;;;;;12.68;8.57;;;8.00;75.10;;;;;;5063850;28;20036;-90
2021/03/07 11:18:37;;;;;;;12.95;8.85;;;8.20;74.10;;;;;;5056606;28;20068;-90
2021/03/07 11:21:04;;;;;;;14.48;9.10;;;8.40;74.10;;;;;;5056890;28;20064;-91
2021/03/07 11:23:30;;;;;;;13.77;8.13;;;8.40;74.20;;;;;;5057152;28;20025;-90
2021/03/07 12:10:23;;;;;;;14.02;9.35;;;8.60;68.00;;;;;;5052746;28;20045;-88
2021/03/07 12:13:42;;;;;;;12.70;8.57;;;8.70;68.40;;;;;;5038272;28;20065;-87
2021/03/07 12:16:58;;;;;;;14.65;9.23;;;8.90;68.20;;;;;;5059017;28;20061;-89
2021/03/07 12:19:28;;;;;;;15.18;9.00;;;8.70;66.50;;;;;;4952243;28;20167;-89
2021/03/07 12:22:17;;;;;;;12.73;8.73;;;8.90;67.10;;;;;;5039816;28;20060;-90
2021/03/07 12:25:18;;;;;;;12.88;8.95;;;8.80;67.50;;;;;;5040265;28;20020;-88
2021/03/07 12:31:08;;;;;;;13.43;8.35;;;8.90;67.00;;;;;;5053701;28;19959;-89
2021/03/07 12:33:34;;;;;;;13.30;9.13;;;9.00;65.80;;;;;;5035676;28;20553;-89
2021/03/07 12:35:59;;;;;;;14.20;9.57;;;8.90;65.90;;;;;;5036442;28;20057;-89
2021/03/07 12:38:25;;;;;;;13.38;8.73;;;8.80;65.90;;;;;;5034865;28;20470;-89
2021/03/07 12:40:51;;;;;;;13.43;8.32;;;8.90;66.50;;;;;;5035581;28;20033;-89
2021/03/07 12:43:17;;;;;;;13.38;8.90;;;9.00;64.60;;;;;;5053661;28;20025;-90
2021/03/07 12:45:49;;;;;;;11.05;7.80;;;9.00;64.00;;;;;;5056070;28;20097;-89
2021/03/07 12:48:15;;;;;;;12.75;8.98;;;9.00;64.30;;;;;;5057846;28;20106;-89
2021/03/07 12:50:53;;;;;;;13.55;9.27;;;8.90;65.20;;;;;;5057175;28;20436;-91
2021/03/07 12:53:19;;;;;;;18.58;9.20;;;9.20;65.40;;;;;;5062064;28;20029;-90
2021/03/07 12:55:45;;;;;;;14.32;9.40;;;9.20;64.60;;;;;;5065316;28;20028;-91
2021/03/07 12:58:11;;;;;;;13.45;8.00;;;9.10;64.60;;;;;;5056209;28;20127;-91
2021/03/07 13:24:35;;;;;;;12.40;8.15;;;9.40;61.60;;;;;;5073207;28;20101;-90
2021/03/07 13:27:01;;;;;;;12.65;8.75;;;9.30;62.50;;;;;;5057358;28;20127;-91
2021/03/07 13:29:26;;;;;;;14.13;8.35;;;9.30;62.60;;;;;;5058694;28;20043;-91
2021/03/07 13:31:52;;;;;;;12.98;9.07;;;9.40;62.80;;;;;;5058179;28;20021;-91
2021/03/07 13:34:18;;;;;;;13.27;8.52;;;9.50;62.60;;;;;;5058745;28;20020;-91
2021/03/07 13:36:43;;;;;;;12.70;7.68;;;9.70;62.00;;;;;;5042409;28;20112;-90
2021/03/07 13:39:25;;;;;;;12.57;8.80;;;9.80;62.50;;;;;;5035318;28;20088;-89
2021/03/07 13:41:50;;;;;;;14.02;8.73;;;9.90;62.20;;;;;;5040850;28;20027;-90
2021/03/07 13:44:19;;;;;;;14.02;9.15;;;9.80;61.70;;;;;;5034837;28;20112;-90
2021/03/07 13:47:29;;;;;;;12.32;8.32;;;9.90;61.80;;;;;;5033512;28;20116;-90
2021/03/07 13:49:51;;;;;;;13.48;8.88;;;10.00;61.10;;;;;;5045225;28;20470;-89
2021/03/07 13:52:18;;;;;;;12.80;8.45;;;10.00;60.50;;;;;;5045838;28;20028;-89
2021/03/07 13:54:43;;;;;;;12.50;8.70;;;10.00;60.70;;;;;;5054500;28;20025;-90
2021/03/07 13:57:09;;;;;;;13.63;8.82;;;10.00;60.70;;;;;;5054464;28;20022;-89
2021/03/07 13:59:36;;;;;;;13.45;8.77;;;10.10;60.40;;;;;;5054964;28;20107;-90
2021/03/07 14:02:02;;;;;;;13.98;8.43;;;10.20;59.90;;;;;;5055862;28;20029;-90
2021/03/07 14:04:31;;;;;;;13.15;8.00;;;10.30;59.60;;;;;;5036837;28;20028;-90
2021/03/07 14:06:58;;;;;;;15.02;8.80;;;10.30;59.30;;;;;;5034554;28;20116;-90
2021/03/07 14:09:24;;;;;;;12.82;8.73;;;10.50;59.00;;;;;;5034604;28;20442;-89
2021/03/07 14:11:49;;;;;;;15.05;9.23;;;10.60;58.80;;;;;;5050958;28;20138;-90